Time;durP1;ratioP1;P1;durP2;ratioP2;P2;SDS_P1;SDS_P2;PMS_P1;PMS_P2;Temp;Humidity;BMP_temperature;BMP_pressure;BME280_temperature;BME280_humidity;BME280_pressure;Samples;Min_cycle;Max_cycle;Signal;HPM_P1;HPM_P2
2022/09/14 00:00:48;;;;;;;4.63;2.35;;;11.90;99.90;;;;;;4843081;29;20057;-68
2022/09/14 00:03:15;;;;;;;3.75;2.25;;;11.90;99.90;;;;;;4830318;29;20467;-67
2022/09/14 00:05:40;;;;;;;4.78;2.30;;;12.00;99.90;;;;;;4843891;29;20050;-68
2022/09/14 00:08:06;;;;;;;3.95;2.22;;;12.00;99.90;;;;;;4839882;29;20054;-68
2022/09/14 00:10:32;;;;;;;5.15;1.77;;;12.00;99.90;;;;;;4818981;29;20056;-67
2022/09/14 00:12:59;;;;;;;2.42;1.70;;;12.00;99.90;;;;;;4841237;29;20144;-68
2022/09/14 00:15:25;;;;;;;4.65;2.08;;;12.00;99.90;;;;;;4856036;29;20562;-67
2022/09/14 00:17:50;;;;;;;3.83;1.80;;;12.00;99.90;;;;;;4843264;29;20041;-68
2022/09/14 00:20:16;;;;;;;3.35;2.05;;;12.00;99.90;;;;;;4838927;29;20074;-68
2022/09/14 00:22:42;;;;;;;6.15;2.25;;;12.00;99.90;;;;;;4839872;29;20054;-68
2022/09/14 00:25:08;;;;;;;5.15;2.00;;;12.00;99.90;;;;;;4813424;29;20037;-68
2022/09/14 00:27:33;;;;;;;3.25;1.85;;;12.00;99.90;;;;;;4858599;29;20057;-68
2022/09/14 00:29:59;;;;;;;6.88;2.40;;;12.00;99.90;;;;;;4861058;29;20051;-68
2022/09/14 00:32:25;;;;;;;2.63;1.95;;;12.10;99.90;;;;;;4826718;29;20506;-68
2022/09/14 00:34:50;;;;;;;4.53;1.83;;;12.10;99.90;;;;;;4824419;29;20074;-68
2022/09/14 00:37:16;;;;;;;5.35;2.35;;;12.10;99.90;;;;;;4835171;29;20085;-68
2022/09/14 00:39:41;;;;;;;3.28;2.03;;;12.10;99.90;;;;;;4842322;29;20056;-68
2022/09/14 00:42:13;;;;;;;4.43;2.58;;;12.20;99.90;;;;;;4825184;29;20056;-68
2022/09/14 00:44:39;;;;;;;4.82;2.90;;;12.20;99.90;;;;;;4840645;29;20386;-68
2022/09/14 00:47:04;;;;;;;4.88;2.25;;;12.30;99.90;;;;;;4838198;29;20053;-68
2022/09/14 00:49:36;;;;;;;3.33;2.38;;;12.40;99.90;;;;;;4840076;29;20050;-68
2022/09/14 00:52:07;;;;;;;7.88;2.85;;;12.40;99.90;;;;;;4823942;29;20058;-68
2022/09/14 00:54:38;;;;;;;5.85;2.47;;;12.50;99.90;;;;;;4807752;29;20058;-68
2022/09/14 00:57:04;;;;;;;2.30;2.10;;;12.50;99.90;;;;;;4823499;29;20089;-68
2022/09/14 00:59:33;;;;;;;4.68;2.20;;;12.60;99.90;;;;;;4841121;29;20085;-68
2022/09/14 01:01:59;;;;;;;7.28;2.50;;;12.60;99.90;;;;;;4840910;29;20559;-68
2022/09/14 01:04:25;;;;;;;6.47;2.90;;;12.70;99.90;;;;;;4820387;29;20061;-67
2022/09/14 01:07:01;;;;;;;7.32;2.85;;;12.70;99.90;;;;;;4861604;29;20045;-68
2022/09/14 01:09:55;;;;;;;6.35;2.67;;;12.70;99.90;;;;;;4845434;29;20068;-68
2022/09/14 01:13:04;;;;;;;6.20;2.47;;;12.70;99.90;;;;;;4857497;29;20143;-68
2022/09/14 01:15:51;;;;;;;3.05;2.40;;;12.70;99.90;;;;;;4844658;29;20064;-67
2022/09/14 01:18:45;;;;;;;6.85;2.38;;;12.70;99.90;;;;;;4844539;29;20479;-68
2022/09/14 01:21:17;;;;;;;4.80;2.55;;;12.70;99.90;;;;;;4852319;29;20057;-68
2022/09/14 01:23:49;;;;;;;;;;;12.60;99.90;;;;;;4855866;29;20050;-68
2022/09/14 01:26:44;;;;;;;3.60;2.70;;;12.60;99.90;;;;;;4845367;29;19921;-68
2022/09/14 01:29:30;;;;;;;4.10;2.53;;;12.60;99.90;;;;;;4845043;29;20128;-68
2022/09/14 01:32:23;;;;;;;6.07;2.63;;;12.60;99.90;;;;;;4817732;29;20051;-68
2022/09/14 01:35:00;;;;;;;;;;;12.60;99.90;;;;;;4842355;29;20057;-68
2022/09/14 01:37:47;;;;;;;2.15;1.95;;;12.60;99.90;;;;;;4843556;29;20010;-68
2022/09/14 01:40:21;;;;;;;2.60;1.77;;;12.60;99.90;;;;;;4833053;29;20054;-68
2022/09/14 01:42:51;;;;;;;3.40;1.83;;;12.60;99.90;;;;;;4844670;29;20437;-68
2022/09/14 01:45:19;;;;;;;2.40;2.20;;;12.60;99.90;;;;;;4852302;29;20053;-68
2022/09/14 01:48:04;;;;;;;3.30;2.00;;;12.70;99.90;;;;;;4841434;29;20368;-68
2022/09/14 01:50:50;;;;;;;7.97;2.28;;;12.70;99.90;;;;;;4863579;29;20173;-68
2022/09/14 01:53:33;;;;;;;3.05;2.05;;;12.70;99.90;;;;;;4845413;29;20059;-68
2022/09/14 01:56:15;;;;;;;3.42;2.05;;;12.70;99.90;;;;;;4856474;29;20100;-67
2022/09/14 01:58:49;;;;;;;2.75;1.90;;;12.60;99.90;;;;;;4853784;29;20046;-67
2022/09/14 02:01:20;;;;;;;5.15;2.13;;;12.60;99.90;;;;;;4834397;29;20132;-68
2022/09/14 02:03:50;;;;;;;4.18;2.40;;;12.60;99.90;;;;;;4857818;29;20099;-68
2022/09/14 02:06:44;;;;;;;4.00;2.35;;;12.50;99.90;;;;;;4861178;29;20045;-68
2022/09/14 02:09:12;;;;;;;5.15;2.38;;;12.50;99.90;;;;;;4827062;29;20065;-68
2022/09/14 02:11:38;;;;;;;3.60;2.33;;;12.50;99.90;;;;;;4846044;29;20057;-68
2022/09/14 02:14:05;;;;;;;5.70;2.20;;;12.50;99.90;;;;;;4862002;29;20049;-68
2022/09/14 02:16:30;;;;;;;3.97;1.80;;;12.50;99.90;;;;;;4852980;29;20058;-68
2022/09/14 02:18:58;;;;;;;2.55;2.35;;;12.40;99.90;;;;;;4842404;29;20058;-68
2022/09/14 02:21:31;;;;;;;2.35;2.15;;;12.40;99.90;;;;;;4842408;29;20061;-68
2022/09/14 02:23:58;;;;;;;3.30;2.08;;;12.40;99.90;;;;;;4838280;29;20394;-68
2022/09/14 02:26:25;;;;;;;4.97;2.60;;;12.30;99.90;;;;;;4861563;29;20045;-68
2022/09/14 02:28:54;;;;;;;5.28;2.75;;;12.30;99.90;;;;;;4857754;29;20136;-68
2022/09/14 02:31:57;;;;;;;4.65;2.95;;;12.20;99.90;;;;;;4842411;29;20165;-68
2022/09/14 02:34:43;;;;;;;3.85;2.40;;;12.10;99.90;;;;;;4763679;29;20135;-68
2022/09/14 02:37:25;;;;;;;3.30;3.00;;;12.10;99.90;;;;;;4862122;29;20049;-68
2022/09/14 02:40:05;;;;;;;6.32;3.15;;;12.10;99.90;;;;;;4857067;29;20049;-68
2022/09/14 02:42:52;;;;;;;4.47;2.70;;;12.10;99.90;;;;;;4844977;29;20054;-68
2022/09/14 02:45:53;;;;;;;4.97;3.28;;;12.00;99.90;;;;;;4857602;29;20045;-68
2022/09/14 02:48:29;;;;;;;5.90;3.10;;;12.00;99.90;;;;;;4847160;29;20061;-68
2022/09/14 02:51:03;;;;;;;5.97;3.45;;;12.00;99.90;;;;;;4842066;29;20386;-68
2022/09/14 02:53:34;;;;;;;3.47;2.90;;;12.00;99.90;;;;;;4860912;29;20057;-68
2022/09/14 02:56:04;;;;;;;4.53;3.33;;;12.00;99.90;;;;;;4845419;29;20089;-68
2022/09/14 02:58:38;;;;;;;5.40;3.42;;;12.00;99.90;;;;;;4843718;29;20053;-68
2022/09/14 03:01:05;;;;;;;7.45;3.30;;;12.00;99.90;;;;;;4827628;29;20086;-68
2022/09/14 03:03:30;;;;;;;5.85;3.25;;;12.00;99.90;;;;;;4837142;29;20125;-68
2022/09/14 03:05:56;;;;;;;7.97;3.30;;;12.00;99.90;;;;;;4847324;29;20083;-68
2022/09/14 03:08:23;;;;;;;3.42;3.13;;;12.00;99.90;;;;;;4841080;29;20077;-68
2022/09/14 03:10:49;;;;;;;4.18;3.05;;;12.10;99.90;;;;;;4835039;29;20049;-68
2022/09/14 03:13:14;;;;;;;6.50;3.42;;;12.10;99.90;;;;;;4843182;29;20125;-68
2022/09/14 03:15:40;;;;;;;5.35;3.47;;;12.10;99.90;;;;;;4845190;29;20050;-68
2022/09/14 03:18:07;;;;;;;4.75;3.38;;;12.20;99.90;;;;;;4858180;29;20049;-68
2022/09/14 03:20:33;;;;;;;5.03;3.58;;;12.20;99.90;;;;;;4860260;29;20045;-68
2022/09/14 03:22:59;;;;;;;3.97;2.85;;;12.20;99.90;;;;;;4855429;29;20072;-68
2022/09/14 03:25:26;;;;;;;6.07;3.40;;;12.30;99.90;;;;;;4862316;29;20402;-68
2022/09/14 03:27:56;;;;;;;11.90;3.20;;;12.30;99.90;;;;;;4859858;29;20045;-68
2022/09/14 03:30:22;;;;;;;4.13;3.20;;;12.40;99.90;;;;;;4854893;29;20181;-68
2022/09/14 03:32:49;;;;;;;6.25;3.38;;;12.40;99.90;;;;;;4843113;29;20046;-68
2022/09/14 03:35:16;;;;;;;6.70;3.20;;;12.50;99.90;;;;;;4842486;29;20045;-68
2022/09/14 03:37:43;;;;;;;4.18;2.80;;;12.50;99.90;;;;;;4825694;29;20053;-68
2022/09/14 03:40:11;;;;;;;2.90;2.60;;;12.50;99.90;;;;;;4841779;29;20060;-68
2022/09/14 03:42:45;;;;;;;4.85;3.25;;;12.50;99.90;;;;;;4843619;29;20495;-68
2022/09/14 03:45:15;;;;;;;5.55;2.95;;;12.60;99.90;;;;;;4849225;29;20065;-68
2022/09/14 03:47:41;;;;;;;4.93;3.30;;;12.60;99.90;;;;;;4838437;29;20529;-68
2022/09/14 03:50:08;;;;;;;4.47;3.22;;;12.60;99.90;;;;;;4858235;29;20053;-68
2022/09/14 03:52:35;;;;;;;4.35;3.00;;;12.60;99.90;;;;;;4842040;29;20435;-68
2022/09/14 03:55:01;;;;;;;4.32;3.45;;;12.70;99.90;;;;;;4858280;29;20064;-68
2022/09/14 03:57:26;;;;;;;6.50;3.47;;;12.70;99.90;;;;;;4860864;29;20482;-68
2022/09/14 03:59:52;;;;;;;6.18;3.65;;;12.70;99.90;;;;;;4831265;29;20060;-68
2022/09/14 04:02:18;;;;;;;4.63;3.88;;;12.70;99.90;;;;;;4840161;29;20045;-68
2022/09/14 04:04:44;;;;;;;6.45;3.60;;;12.80;99.90;;;;;;4840767;29;20056;-68
2022/09/14 04:07:09;;;;;;;6.72;3.38;;;12.80;99.90;;;;;;4825628;29;20152;-68
2022/09/14 04:09:35;;;;;;;4.68;3.53;;;12.80;99.90;;;;;;4838845;29;20057;-67
2022/09/14 04:12:01;;;;;;;6.55;3.72;;;12.90;99.90;;;;;;4841624;29;20057;-68
2022/09/14 04:14:26;;;;;;;7.55;3.97;;;12.90;99.90;;;;;;4813480;29;20510;-68
2022/09/14 04:16:52;;;;;;;5.45;3.70;;;12.90;99.90;;;;;;4859894;29;20046;-68
2022/09/14 04:19:17;;;;;;;6.10;3.30;;;12.90;99.90;;;;;;4840254;29;20485;-68
2022/09/14 04:21:44;;;;;;;9.07;3.40;;;12.90;99.90;;;;;;4839665;29;20444;-68
2022/09/14 04:24:12;;;;;;;5.40;3.10;;;12.90;99.90;;;;;;4855285;29;21377;-68
2022/09/14 04:26:38;;;;;;;4.88;3.10;;;13.00;99.90;;;;;;4841134;29;20057;-68
2022/09/14 04:29:03;;;;;;;5.15;3.15;;;13.00;99.90;;;;;;4853772;29;20046;-67
2022/09/14 04:31:29;;;;;;;6.78;3.22;;;13.10;99.90;;;;;;4860928;29;20053;-68
2022/09/14 04:33:55;;;;;;;5.65;3.28;;;13.00;99.90;;;;;;4811698;29;20057;-68
2022/09/14 04:36:26;;;;;;;6.65;3.17;;;13.10;99.90;;;;;;4840580;29;20049;-68
2022/09/14 04:38:53;;;;;;;5.60;2.78;;;13.10;99.90;;;;;;4842728;29;20057;-68
2022/09/14 04:41:20;;;;;;;5.97;3.10;;;13.10;99.90;;;;;;4839313;29;20403;-68
2022/09/14 04:47:28;;;;;;;5.85;3.00;;;13.20;99.90;;;;;;4839347;29;20068;-68
2022/09/14 04:50:19;;;;;;;7.60;3.20;;;13.20;99.90;;;;;;4824615;29;20038;-68
2022/09/14 04:53:40;;;;;;;5.65;2.88;;;13.20;99.90;;;;;;4829440;29;20053;-68
2022/09/14 05:00:15;;;;;;;6.03;2.83;;;13.20;99.90;;;;;;4840857;29;20136;-68
2022/09/14 05:02:42;;;;;;;5.40;3.30;;;13.20;99.90;;;;;;4838186;29;20042;-68
2022/09/14 05:05:37;;;;;;;5.32;3.30;;;13.20;99.90;;;;;;4830856;29;20082;-68
2022/09/14 05:08:04;;;;;;;5.47;2.92;;;13.20;99.90;;;;;;4823768;29;20038;-68
2022/09/14 05:10:29;;;;;;;8.07;3.03;;;13.10;99.90;;;;;;4824163;29;20508;-68
2022/09/14 05:13:21;;;;;;;6.22;3.10;;;13.20;99.90;;;;;;4826904;29;20140;-67
2022/09/14 05:15:46;;;;;;;6.20;2.78;;;13.20;99.90;;;;;;4840018;29;20057;-66
2022/09/14 05:18:12;;;;;;;7.13;3.20;;;13.20;99.90;;;;;;4841487;29;20038;-67
2022/09/14 05:20:37;;;;;;;3.97;3.00;;;13.20;99.90;;;;;;4839997;29;20199;-67
2022/09/14 05:23:03;;;;;;;5.70;3.10;;;13.20;99.90;;;;;;4840206;29;20085;-67
2022/09/14 05:25:28;;;;;;;6.32;2.95;;;13.20;99.90;;;;;;4810940;29;20061;-67
2022/09/14 05:27:54;;;;;;;4.13;3.22;;;13.20;99.90;;;;;;4824890;29;20054;-67
2022/09/14 05:30:19;;;;;;;3.83;2.90;;;13.20;99.90;;;;;;4824087;29;20444;-67
2022/09/14 05:32:45;;;;;;;4.32;3.10;;;13.30;99.90;;;;;;4840700;29;20129;-68
2022/09/14 05:35:11;;;;;;;3.67;2.72;;;13.30;99.90;;;;;;4837507;29;20149;-68
2022/09/14 05:37:36;;;;;;;7.55;3.13;;;13.30;99.90;;;;;;4822393;29;20045;-69
2022/09/14 05:40:04;;;;;;;5.03;2.70;;;13.30;99.90;;;;;;4841807;29;20057;-69
2022/09/14 05:42:30;;;;;;;4.63;2.70;;;13.30;99.90;;;;;;4839677;29;20053;-68
2022/09/14 05:44:56;;;;;;;8.05;3.10;;;13.30;99.90;;;;;;4821927;29;20073;-68
2022/09/14 05:47:22;;;;;;;4.63;3.38;;;13.40;99.90;;;;;;4837795;29;20081;-68
2022/09/14 05:49:48;;;;;;;4.38;3.03;;;13.40;99.90;;;;;;4840390;29;20111;-68
2022/09/14 05:52:20;;;;;;;4.03;2.90;;;13.40;99.90;;;;;;4840060;29;20468;-68
2022/09/14 05:54:46;;;;;;;;;;;13.40;99.90;;;;;;4844655;29;20065;-68
2022/09/14 05:57:12;;;;;;;4.78;2.78;;;13.40;99.90;;;;;;4827216;29;19924;-67
2022/09/14 05:59:38;;;;;;;6.13;2.83;;;13.40;99.90;;;;;;4843517;29;20046;-67
2022/09/14 06:02:05;;;;;;;4.70;3.13;;;13.50;99.90;;;;;;4820655;29;20050;-67
2022/09/14 06:04:30;;;;;;;6.47;3.40;;;13.50;99.90;;;;;;4843656;29;20093;-67
2022/09/14 06:06:56;;;;;;;5.70;3.50;;;13.50;99.90;;;;;;4843410;29;20085;-67
2022/09/14 06:09:22;;;;;;;3.50;3.20;;;13.50;99.90;;;;;;4844121;29;20440;-66
2022/09/14 06:11:47;;;;;;;6.28;3.08;;;13.60;99.90;;;;;;4844317;29;20402;-67
2022/09/14 06:14:18;;;;;;;3.88;3.20;;;13.60;99.90;;;;;;4844690;29;20119;-66
2022/09/14 06:16:44;;;;;;;3.38;3.08;;;13.60;99.90;;;;;;4844665;29;20090;-67
2022/09/14 06:19:10;;;;;;;4.45;3.03;;;13.60;99.90;;;;;;4836739;29;20080;-67
2022/09/14 06:21:36;;;;;;;4.72;3.28;;;13.60;99.90;;;;;;4862029;29;20379;-67
2022/09/14 06:24:02;;;;;;;4.50;3.05;;;13.60;99.90;;;;;;4846024;29;20055;-67
2022/09/14 06:26:28;;;;;;;6.35;3.28;;;13.70;99.90;;;;;;4846438;29;20053;-67
2022/09/14 06:28:53;;;;;;;4.70;3.17;;;13.70;99.90;;;;;;4862590;29;20049;-67
2022/09/14 06:31:21;;;;;;;4.90;3.53;;;13.70;99.90;;;;;;4846225;29;20399;-67
2022/09/14 06:33:48;;;;;;;6.63;3.28;;;13.80;99.90;;;;;;4841896;29;20049;-67
2022/09/14 06:36:20;;;;;;;6.95;3.97;;;13.90;99.90;;;;;;4847522;29;20057;-67
2022/09/14 06:38:47;;;;;;;;;;;13.90;99.90;;;;;;4841265;29;20060;-67
2022/09/14 06:41:19;;;;;;;5.53;3.42;;;13.90;99.90;;;;;;4845952;29;20413;-67
2022/09/14 06:43:45;;;;;;;6.05;3.35;;;14.00;99.90;;;;;;4862434;29;20128;-69
2022/09/14 06:46:22;;;;;;;5.82;3.55;;;14.00;99.90;;;;;;4842234;29;20042;-67
2022/09/14 06:49:00;;;;;;;5.30;3.78;;;14.20;99.90;;;;;;4839904;29;20113;-67
2022/09/14 06:51:34;;;;;;;4.45;3.33;;;14.20;99.90;;;;;;4820300;29;20098;-67
2022/09/14 06:54:00;;;;;;;6.97;3.55;;;14.30;99.90;;;;;;4841788;29;20045;-67
2022/09/14 06:56:30;;;;;;;4.82;3.15;;;14.40;99.90;;;;;;4847824;29;20081;-67
2022/09/14 06:59:00;;;;;;;6.05;3.15;;;14.50;99.90;;;;;;4842662;29;20061;-67
2022/09/14 07:01:26;;;;;;;3.97;3.40;;;14.50;99.90;;;;;;4837401;29;20065;-67
2022/09/14 07:03:52;;;;;;;3.78;3.38;;;14.50;99.90;;;;;;4823967;29;20045;-67
2022/09/14 07:06:24;;;;;;;6.13;3.35;;;14.50;99.90;;;;;;4842513;29;20034;-67
2022/09/14 07:08:51;;;;;;;5.22;3.20;;;14.60;99.90;;;;;;4843469;29;20534;-67
2022/09/14 07:11:19;;;;;;;5.13;3.08;;;14.70;99.90;;;;;;4842690;29;20045;-67
2022/09/14 07:13:46;;;;;;;4.95;2.90;;;14.70;99.90;;;;;;4825003;29;20058;-66
2022/09/14 07:16:12;;;;;;;5.00;3.03;;;14.80;99.90;;;;;;4839431;29;20125;-66
2022/09/14 07:18:38;;;;;;;4.32;3.22;;;14.90;99.90;;;;;;4836913;29;20391;-67
2022/09/14 07:21:05;;;;;;;6.50;3.60;;;15.00;99.90;;;;;;4834870;29;20046;-67
2022/09/14 07:23:31;;;;;;;5.30;3.20;;;15.00;99.90;;;;;;4839230;29;20395;-66
2022/09/14 07:26:12;;;;;;;4.82;2.70;;;15.10;99.90;;;;;;4826535;29;20057;-66
2022/09/14 07:28:38;;;;;;;5.30;3.35;;;15.10;99.90;;;;;;4843011;29;20045;-67
2022/09/14 07:31:13;;;;;;;3.25;2.67;;;15.20;99.90;;;;;;4843168;29;20062;-67
2022/09/14 07:33:38;;;;;;;6.45;2.70;;;15.20;99.90;;;;;;4828590;29;20053;-67
2022/09/14 07:36:09;;;;;;;7.32;3.10;;;15.40;99.90;;;;;;4826601;29;20122;-67
2022/09/14 07:38:34;;;;;;;3.63;2.28;;;15.50;99.90;;;;;;4826309;29;20058;-67
2022/09/14 07:41:00;;;;;;;4.63;2.55;;;15.60;99.90;;;;;;4843183;29;20041;-67
2022/09/14 07:43:27;;;;;;;3.78;2.50;;;15.70;99.90;;;;;;4842419;29;20443;-67
2022/09/14 07:45:52;;;;;;;3.53;2.28;;;15.80;99.90;;;;;;4826449;29;20117;-67
2022/09/14 07:48:19;;;;;;;4.78;2.22;;;15.90;99.90;;;;;;4826041;29;20216;-67
2022/09/14 07:50:45;;;;;;;4.22;2.05;;;16.10;99.90;;;;;;4842632;29;20064;-66
2022/09/14 07:53:11;;;;;;;8.15;2.40;;;16.10;99.90;;;;;;4842143;29;20455;-67
2022/09/14 07:55:40;;;;;;;3.50;1.95;;;16.10;99.90;;;;;;4842529;29;20498;-67
2022/09/14 07:58:06;;;;;;;5.70;2.38;;;16.10;99.90;;;;;;4842300;29;20174;-67
2022/09/14 08:00:32;;;;;;;3.72;2.03;;;16.20;99.90;;;;;;4841959;29;20492;-67
2022/09/14 08:02:58;;;;;;;4.65;2.20;;;16.20;99.90;;;;;;4825291;29;20190;-67
2022/09/14 08:05:25;;;;;;;4.90;2.67;;;16.30;99.90;;;;;;4841156;29;20049;-67
2022/09/14 08:07:57;;;;;;;4.93;2.97;;;16.40;99.90;;;;;;4825781;29;20479;-68
2022/09/14 08:10:24;;;;;;;3.78;2.47;;;16.40;99.90;;;;;;4826071;29;20106;-67
2022/09/14 08:12:51;;;;;;;4.30;2.47;;;16.50;99.90;;;;;;4825480;29;20399;-66
2022/09/14 08:15:18;;;;;;;5.53;2.30;;;16.60;99.90;;;;;;4841605;29;20077;-66
2022/09/14 08:17:43;;;;;;;4.82;2.72;;;16.70;99.90;;;;;;4841596;29;20057;-66
2022/09/14 08:20:09;;;;;;;6.03;2.67;;;17.10;99.90;;;;;;4826241;29;20046;-67
2022/09/14 08:22:34;;;;;;;3.83;2.50;;;16.90;99.90;;;;;;4825136;29;20493;-67
2022/09/14 08:25:00;;;;;;;5.50;2.83;;;16.90;99.90;;;;;;4842160;29;20125;-67
2022/09/14 08:27:25;;;;;;;4.57;2.25;;;17.00;99.90;;;;;;4840961;29;20046;-67
2022/09/14 08:29:51;;;;;;;5.43;2.13;;;17.00;99.90;;;;;;4841526;29;20046;-67
2022/09/14 08:32:16;;;;;;;4.57;2.45;;;17.10;99.90;;;;;;4842449;29;20337;-67
2022/09/14 08:34:42;;;;;;;4.45;2.28;;;17.20;99.90;;;;;;4841090;29;20053;-67
2022/09/14 08:37:09;;;;;;;3.55;2.15;;;17.30;99.90;;;;;;4840475;29;20189;-67
2022/09/14 08:39:35;;;;;;;2.90;1.90;;;17.40;99.90;;;;;;4840661;29;20471;-67
2022/09/14 08:42:04;;;;;;;5.88;1.85;;;17.50;99.90;;;;;;4842281;29;20093;-67
2022/09/14 08:44:40;;;;;;;4.53;1.85;;;17.60;99.90;;;;;;4840953;29;20522;-67
2022/09/14 08:47:27;;;;;;;5.13;1.60;;;17.80;99.90;;;;;;4841500;29;20088;-67
2022/09/14 08:50:05;;;;;;;3.67;1.30;;;17.90;99.90;;;;;;4841478;29;20431;-67
2022/09/14 08:52:38;;;;;;;3.20;1.27;;;18.00;99.90;;;;;;4839622;29;20122;-67
2022/09/14 08:55:40;;;;;;;4.28;1.45;;;18.10;99.90;;;;;;4840393;29;20096;-68
2022/09/14 08:58:11;;;;;;;4.45;1.00;;;18.20;99.90;;;;;;4840469;29;20509;-67
2022/09/14 09:00:47;;;;;;;4.55;1.10;;;18.20;99.90;;;;;;4825387;29;20065;-67
2022/09/14 09:03:38;;;;;;;2.00;0.88;;;18.20;99.90;;;;;;4810410;29;20045;-67
2022/09/14 09:06:29;;;;;;;5.75;0.73;;;18.20;99.90;;;;;;4842162;29;20513;-67
2022/09/14 09:09:11;;;;;;;4.35;0.90;;;18.30;99.90;;;;;;4840962;29;20490;-67
2022/09/14 09:11:42;;;;;;;3.97;1.23;;;18.30;99.90;;;;;;4825460;29;20054;-67
2022/09/14 09:14:22;;;;;;;2.42;0.50;;;18.30;99.90;;;;;;4840346;29;20520;-67
2022/09/14 09:16:52;;;;;;;2.85;0.70;;;18.20;99.90;;;;;;4824478;29;20503;-67
2022/09/14 09:19:48;;;;;;;2.40;0.82;;;18.20;99.90;;;;;;4840194;29;20046;-67
2022/09/14 09:22:17;;;;;;;2.10;0.90;;;18.20;99.90;;;;;;4837626;29;20050;-67
2022/09/14 09:24:50;;;;;;;3.10;0.93;;;18.20;99.90;;;;;;4825267;29;20540;-67
2022/09/14 09:27:16;;;;;;;3.42;0.75;;;18.30;99.90;;;;;;4843424;29;20132;-67
2022/09/14 09:29:42;;;;;;;7.90;0.93;;;18.30;99.90;;;;;;4844959;29;20121;-68
2022/09/14 09:32:18;;;;;;;4.20;0.88;;;18.40;99.90;;;;;;4845109;29;20129;-68
2022/09/14 09:34:43;;;;;;;4.50;1.20;;;18.40;99.90;;;;;;4845336;29;20045;-67
2022/09/14 09:37:21;;;;;;;5.88;0.88;;;18.50;99.90;;;;;;4812859;29;20061;-68
2022/09/14 09:39:48;;;;;;;2.88;0.80;;;18.60;99.90;;;;;;4845076;29;20050;-67
2022/09/14 09:42:27;;;;;;;2.58;0.77;;;18.60;99.90;;;;;;4844553;29;20069;-68
2022/09/14 09:44:57;;;;;;;3.03;0.68;;;18.80;99.90;;;;;;4842102;29;20049;-68
2022/09/14 09:47:29;;;;;;;5.85;1.00;;;18.90;99.90;;;;;;4825464;29;20042;-68
2022/09/14 09:50:01;;;;;;;2.97;1.10;;;19.00;99.90;;;;;;4843243;29;20061;-70
2022/09/14 09:52:28;;;;;;;3.25;0.80;;;19.10;99.90;;;;;;4844206;29;20479;-68
2022/09/14 09:54:55;;;;;;;3.28;0.65;;;19.30;99.90;;;;;;4843525;29;20521;-68
2022/09/14 09:57:31;;;;;;;2.55;0.60;;;19.30;99.90;;;;;;4844406;29;20057;-66
2022/09/14 10:00:23;;;;;;;6.38;0.95;;;19.40;99.90;;;;;;4827686;29;20050;-67
2022/09/14 10:02:49;;;;;;;4.30;0.88;;;19.60;99.90;;;;;;4826404;29;20129;-67
2022/09/14 10:05:31;;;;;;;2.50;0.68;;;19.70;99.90;;;;;;4844153;29;20058;-67
2022/09/14 10:08:02;;;;;;;9.13;0.98;;;19.90;99.90;;;;;;4842385;29;20054;-67
2022/09/14 10:10:33;;;;;;;5.57;1.23;;;20.00;99.90;;;;;;4844710;29;20053;-66
2022/09/14 10:12:59;;;;;;;0.90;0.40;;;20.10;99.90;;;;;;4842795;29;20202;-67
2022/09/14 10:15:32;;;;;;;4.97;0.93;;;20.20;99.90;;;;;;4842888;29;20050;-67
2022/09/14 10:18:08;;;;;;;3.17;0.50;;;20.30;99.90;;;;;;4827752;29;20050;-67
2022/09/14 10:20:36;;;;;;;2.85;0.88;;;20.50;99.90;;;;;;4843977;29;20432;-67
2022/09/14 10:23:22;;;;;;;2.75;0.60;;;20.80;99.90;;;;;;4843079;29;20049;-67
2022/09/14 10:25:50;;;;;;;3.28;0.90;;;21.00;99.90;;;;;;4827204;29;20126;-68
2022/09/14 10:28:25;;;;;;;1.60;0.60;;;21.10;99.90;;;;;;4827424;29;20049;-66
2022/09/14 10:31:14;;;;;;;5.60;0.73;;;21.20;99.90;;;;;;4825964;29;20053;-66
2022/09/14 10:33:40;;;;;;;4.22;0.60;;;21.30;99.90;;;;;;4803927;29;20053;-67
2022/09/14 10:36:34;;;;;;;3.25;0.80;;;21.40;99.90;;;;;;4844311;29;20440;-67
2022/09/14 10:39:17;;;;;;;3.97;0.60;;;21.30;99.90;;;;;;4843742;29;20117;-67
2022/09/14 10:41:55;;;;;;;1.30;0.60;;;21.30;99.90;;;;;;4827129;29;20490;-66
2022/09/14 10:44:42;;;;;;;3.67;0.98;;;21.00;99.90;;;;;;4844432;29;20441;-66
2022/09/14 10:47:13;;;;;;;6.22;0.88;;;20.80;99.90;;;;;;4844026;29;20085;-67
2022/09/14 10:50:06;;;;;;;2.80;0.70;;;20.50;99.90;;;;;;4843872;29;20100;-67
2022/09/14 10:52:57;;;;;;;4.55;1.00;;;20.30;99.90;;;;;;4842419;29;20053;-67
2022/09/14 10:56:01;;;;;;;4.20;0.82;;;20.00;99.90;;;;;;4841415;29;20403;-66
2022/09/14 10:58:51;;;;;;;1.45;0.82;;;19.70;99.90;;;;;;4832893;29;20498;-66
2022/09/14 11:01:40;;;;;;;5.68;1.00;;;19.60;99.90;;;;;;4824876;29;20137;-66
2022/09/14 11:04:22;;;;;;;2.05;0.73;;;19.60;99.90;;;;;;4813986;29;20432;-66
2022/09/14 11:07:15;;;;;;;3.83;0.90;;;19.50;99.90;;;;;;4840195;29;20153;-66
2022/09/14 11:09:56;;;;;;;2.03;0.65;;;19.50;99.90;;;;;;4817163;29;20050;-66
2022/09/14 11:12:43;;;;;;;2.85;1.00;;;19.50;99.90;;;;;;4826442;29;20057;-66
2022/09/14 11:15:34;;;;;;;3.30;0.85;;;19.60;99.90;;;;;;4845824;29;20121;-66
2022/09/14 11:18:10;;;;;;;3.70;0.90;;;19.60;99.90;;;;;;4862049;29;20072;-65
2022/09/14 11:21:02;;;;;;;4.15;0.77;;;19.60;99.90;;;;;;4861705;29;20591;-66
2022/09/14 11:23:41;;;;;;;3.28;0.80;;;19.70;99.90;;;;;;4857742;29;20054;-66
2022/09/14 11:26:13;;;;;;;2.78;0.82;;;19.80;99.90;;;;;;4840898;29;20068;-66
2022/09/14 11:28:42;;;;;;;;;;;19.90;99.90;;;;;;4826731;29;20472;-66
2022/09/14 11:31:23;;;;;;;5.45;0.93;;;20.00;99.90;;;;;;4840770;29;19927;-66
2022/09/14 11:34:23;;;;;;;2.25;1.05;;;20.00;99.90;;;;;;4841414;29;20046;-66
2022/09/14 11:36:54;;;;;;;3.35;0.80;;;20.20;99.90;;;;;;4818210;29;20085;-67
2022/09/14 11:39:27;;;;;;;2.45;1.00;;;20.40;99.90;;;;;;4840968;29;20053;-67
2022/09/14 11:42:07;;;;;;;3.70;0.73;;;20.50;99.90;;;;;;4841379;29;20124;-66
2022/09/14 11:44:37;;;;;;;2.47;0.50;;;20.50;99.90;;;;;;4841550;29;20049;-66
2022/09/14 11:47:13;;;;;;;1.85;1.00;;;20.60;99.90;;;;;;4842666;29;20057;-66
2022/09/14 11:50:01;;;;;;;4.60;1.10;;;20.70;99.90;;;;;;4841097;29;20129;-66
2022/09/14 11:52:30;;;;;;;2.67;0.75;;;20.80;99.90;;;;;;4841786;29;20045;-66
2022/09/14 11:54:57;;;;;;;2.80;0.70;;;20.80;99.90;;;;;;4842799;29;20053;-66
2022/09/14 11:57:31;;;;;;;2.20;0.80;;;20.90;99.90;;;;;;4841598;29;20050;-67
2022/09/14 12:00:08;;;;;;;2.13;0.75;;;21.00;99.90;;;;;;4840362;29;20060;-67
2022/09/14 12:02:36;;;;;;;2.85;0.85;;;21.00;99.90;;;;;;4842682;29;20382;-66
2022/09/14 12:05:05;;;;;;;2.50;0.90;;;21.20;99.90;;;;;;4841055;29;20058;-66
2022/09/14 12:07:45;;;;;;;3.90;1.00;;;21.40;99.90;;;;;;4841065;29;20050;-66
2022/09/14 12:10:14;;;;;;;5.13;0.93;;;21.50;99.90;;;;;;4842772;29;20097;-67
2022/09/14 12:12:42;;;;;;;4.30;1.00;;;21.60;99.90;;;;;;4842646;29;20049;-66
2022/09/14 12:15:23;;;;;;;3.40;0.88;;;21.50;99.90;;;;;;4842193;29;20049;-66
2022/09/14 12:18:05;;;;;;;1.85;0.68;;;21.40;99.90;;;;;;4826286;29;20061;-67
2022/09/14 12:20:44;;;;;;;4.80;0.80;;;21.40;99.90;;;;;;4826137;29;20041;-66
2022/09/14 12:23:39;;;;;;;;;;;;;;;;;;;;;
2022/09/14 12:30:39;;;;;;;2.15;0.88;;;21.50;98.00;;;;;;4856496;29;20052;-68
2022/09/14 12:33:42;;;;;;;2.53;0.70;;;21.50;99.70;;;;;;4839635;29;20052;-66
2022/09/14 12:36:21;;;;;;;2.20;0.73;;;21.40;98.80;;;;;;4840027;29;20428;-67
2022/09/14 12:38:49;;;;;;;2.25;0.70;;;21.40;99.90;;;;;;4841351;29;20050;-66
2022/09/14 12:41:18;;;;;;;3.88;1.00;;;21.40;99.90;;;;;;4809392;29;20098;-66
2022/09/14 12:47:54;;;;;;;2.72;0.85;;;21.10;99.90;;;;;;4825172;29;20106;-69
2022/09/14 12:50:36;;;;;;;5.15;1.15;;;20.90;99.90;;;;;;4824099;29;20046;-69
2022/09/14 12:53:26;;;;;;;3.38;0.93;;;20.80;99.90;;;;;;4809311;29;20042;-68
2022/09/14 12:56:33;;;;;;;7.05;1.20;;;20.70;99.90;;;;;;4836359;29;20057;-67
2022/09/14 12:59:31;;;;;;;5.13;1.15;;;20.70;99.90;;;;;;4825242;29;20468;-66
2022/09/14 13:02:33;;;;;;;3.38;1.05;;;20.70;99.90;;;;;;4843636;29;20427;-66
2022/09/14 13:04:59;;;;;;;4.07;0.80;;;20.70;99.90;;;;;;4842291;29;20049;-67
2022/09/14 13:07:32;;;;;;;7.68;1.05;;;20.70;99.90;;;;;;4843374;29;20122;-67
2022/09/14 13:09:59;;;;;;;3.72;0.90;;;20.70;99.90;;;;;;4844241;29;20057;-67
2022/09/14 13:12:43;;;;;;;3.75;0.80;;;20.80;99.90;;;;;;4844568;29;20045;-67
2022/09/14 13:15:47;;;;;;;3.88;1.20;;;21.00;99.90;;;;;;4831353;29;20061;-68
2022/09/14 13:18:15;;;;;;;4.20;1.15;;;21.30;99.90;;;;;;4800251;29;20445;-67
2022/09/14 13:20:49;;;;;;;4.03;1.08;;;21.60;99.90;;;;;;4844362;29;20495;-67
2022/09/14 13:23:22;;;;;;;3.15;0.82;;;21.70;99.40;;;;;;4844230;29;20440;-67
2022/09/14 13:25:48;;;;;;;3.80;1.00;;;21.80;98.50;;;;;;4828713;29;20054;-67
2022/09/14 13:28:17;;;;;;;3.90;0.90;;;21.70;98.50;;;;;;4845025;29;20472;-67
2022/09/14 13:30:53;;;;;;;5.07;1.35;;;21.60;97.30;;;;;;4845410;29;20052;-67
2022/09/14 13:33:19;;;;;;;5.00;1.00;;;21.40;96.90;;;;;;4843271;29;20092;-67
2022/09/14 13:35:52;;;;;;;3.30;1.08;;;21.20;96.10;;;;;;4844797;29;20461;-67